Weather at Edinburgh Airport

Public forecast

Using degrees Celsius for public forecast. Weather courtesy of forecast.io.

Current aviation weather report (METAR) for Edinburgh Airport

Report is more than 6 hours old.

Retrieved 2022/09/17 18:50 UTC (19 days ago):

EGPH 171850Z 27006KT 230V320 CAVOK 13/07 Q1021

Aviation forecast (TAF) for Edinburgh Airport

Forecast is more than 12 hours old.

Retrieved 2022/09/17 18:00 UTC (19 days ago):

TAF EGPH 171658Z 1718/1818 28008KT 9999 SCT040 PROB30 TEMPO 1801/1804 8000 -RA BKN014 PROB30 TEMPO 1812/1818 7000 -SHRA